createdAt,value
2024-04-15T00:00:11.012Z,100363.84
2024-04-15T00:03:05.882Z,100364.69
2024-04-15T00:05:53.885Z,100358.50
2024-04-15T00:08:41.738Z,100346.50
2024-04-15T00:11:29.497Z,100356.22
2024-04-15T00:14:17.370Z,100353.63
2024-04-15T00:17:05.224Z,100362.44
2024-04-15T00:19:53.443Z,100355.06
2024-04-15T00:22:41.143Z,100367.59
2024-04-15T00:25:29.006Z,100368.84
2024-04-15T00:28:16.885Z,100356.34
2024-04-15T00:31:04.915Z,100365.69
2024-04-15T00:33:52.704Z,100356.19
2024-04-15T00:36:40.567Z,100362.28
2024-04-15T00:39:28.391Z,100353.66
2024-04-15T00:42:16.328Z,100360.28
2024-04-15T00:45:12.474Z,100351.44
2024-04-15T00:48:02.041Z,100351.22
2024-04-15T00:50:50.692Z,100360.25
2024-04-15T00:53:38.819Z,100359.53
2024-04-15T00:56:26.759Z,100359.88
2024-04-15T00:59:14.793Z,100369.06
2024-04-15T01:02:02.678Z,100362.94
2024-04-15T01:04:50.896Z,100358.28
2024-04-15T01:07:38.913Z,100363.63
2024-04-15T01:10:26.687Z,100370.16
2024-04-15T01:13:14.902Z,100366.69
2024-04-15T01:16:03.077Z,100355.03
2024-04-15T01:18:50.954Z,100354.03
2024-04-15T01:21:38.697Z,100348.31
2024-04-15T01:24:26.658Z,100350.91
2024-04-15T01:27:14.370Z,100352.38
2024-04-15T01:30:02.234Z,100338.91
2024-04-15T01:32:50.520Z,100351.16
2024-04-15T01:35:38.306Z,100355.31
2024-04-15T01:38:26.217Z,100352.53
2024-04-15T01:41:13.953Z,100356.13
2024-04-15T01:44:01.842Z,100358.00
2024-04-15T01:46:49.691Z,100364.09
2024-04-15T01:49:37.515Z,100354.25
2024-04-15T01:52:25.273Z,100352.97
2024-04-15T01:55:13.071Z,100355.22
2024-04-15T01:58:01.054Z,100351.84
2024-04-15T02:00:48.958Z,100360.00
2024-04-15T02:03:37.251Z,100358.81
2024-04-15T02:06:25.073Z,100375.97
2024-04-15T02:09:12.885Z,100368.69
2024-04-15T02:12:02.453Z,100371.41
2024-04-15T02:14:50.354Z,100371.53
2024-04-15T02:17:38.259Z,100377.31
2024-04-15T02:20:26.228Z,100380.97
2024-04-15T02:23:13.983Z,100385.25
2024-04-15T02:26:01.758Z,100378.06
2024-04-15T02:28:49.450Z,100380.91
2024-04-15T02:31:37.366Z,100382.44
2024-04-15T02:34:25.233Z,100368.84
2024-04-15T02:37:13.202Z,100372.75
2024-04-15T02:40:01.228Z,100381.53
2024-04-15T02:42:49.101Z,100378.38
2024-04-15T02:45:36.821Z,100381.81
2024-04-15T02:48:24.690Z,100380.91
2024-04-15T02:51:12.774Z,100397.53
2024-04-15T02:54:00.578Z,100388.53
2024-04-15T02:56:48.447Z,100396.84
2024-04-15T02:59:36.313Z,100394.13
2024-04-15T03:02:24.106Z,100400.72
2024-04-15T03:05:12.198Z,100404.00
2024-04-15T03:07:59.960Z,100398.81
2024-04-15T03:10:47.850Z,100398.06
2024-04-15T03:13:35.752Z,100393.06
2024-04-15T03:16:27.556Z,100395.13
2024-04-15T03:19:17.382Z,100382.84
2024-04-15T03:22:05.621Z,100394.41
2024-04-15T03:24:53.455Z,100391.94
2024-04-15T03:27:41.320Z,100395.16
2024-04-15T03:30:29.306Z,100389.28
2024-04-15T03:33:17.131Z,100389.28
2024-04-15T03:36:05.010Z,100376.41
2024-04-15T03:38:52.880Z,100383.25
2024-04-15T03:41:40.722Z,100383.78
2024-04-15T03:44:28.696Z,100369.31
2024-04-15T03:47:16.491Z,100371.50
2024-04-15T03:50:04.535Z,100367.63
2024-04-15T03:52:52.327Z,100364.56
2024-04-15T03:55:40.142Z,100366.69
2024-04-15T03:58:28.053Z,100375.59
2024-04-15T04:01:15.856Z,100359.84
2024-04-15T04:04:04.033Z,100368.47
2024-04-15T04:06:52.087Z,100366.16
2024-04-15T04:09:39.916Z,100369.72
2024-04-15T04:12:27.923Z,100376.00
2024-04-15T04:15:15.820Z,100369.72
2024-04-15T04:18:04.272Z,100368.78
2024-04-15T04:20:53.567Z,100382.34
2024-04-15T04:23:41.410Z,100373.13
2024-04-15T04:26:30.370Z,100382.84
2024-04-15T04:29:18.339Z,100382.41
2024-04-15T04:32:06.468Z,100387.56
2024-04-15T04:34:54.483Z,100390.31
2024-04-15T04:37:43.019Z,100392.50
2024-04-15T04:40:30.800Z,100395.06
2024-04-15T04:43:18.597Z,100406.19
2024-04-15T04:46:10.378Z,100400.56
2024-04-15T04:48:58.240Z,100402.22
2024-04-15T04:51:46.197Z,100399.59
2024-04-15T04:54:33.983Z,100406.03
2024-04-15T04:57:21.747Z,100404.75
2024-04-15T05:00:09.756Z,100415.94
2024-04-15T05:02:57.533Z,100413.41
2024-04-15T05:05:45.270Z,100425.47
2024-04-15T05:08:33.109Z,100423.16
2024-04-15T05:11:21.052Z,100421.94
2024-04-15T05:14:09.169Z,100430.53
2024-04-15T05:16:56.923Z,100435.53
2024-04-15T05:19:44.716Z,100431.31
2024-04-15T05:22:32.560Z,100434.56
2024-04-15T05:25:20.779Z,100442.03
2024-04-15T05:28:08.620Z,100447.47
2024-04-15T05:30:57.288Z,100444.75
2024-04-15T05:33:45.251Z,100452.25
2024-04-15T05:36:33.237Z,100459.38
2024-04-15T05:39:21.054Z,100452.38
2024-04-15T05:42:08.886Z,100457.66
2024-04-15T05:44:56.590Z,100459.78
2024-04-15T05:47:44.543Z,100465.97
2024-04-15T05:50:32.472Z,100459.59
2024-04-15T05:53:20.269Z,100464.75
2024-04-15T05:56:08.061Z,100459.50
2024-04-15T05:58:55.918Z,100457.66
2024-04-15T06:01:43.793Z,100467.72
2024-04-15T06:04:31.659Z,100467.75
2024-04-15T06:07:20.129Z,100462.84
2024-04-15T06:10:08.380Z,100467.00
2024-04-15T06:12:56.362Z,100462.25
2024-04-15T06:15:44.394Z,100461.13
2024-04-15T06:18:32.265Z,100465.63
2024-04-15T06:21:21.801Z,100456.72
2024-04-15T06:24:09.715Z,100458.94
2024-04-15T06:26:57.864Z,100468.00
2024-04-15T06:29:45.646Z,100469.09
2024-04-15T06:32:33.522Z,100462.88
2024-04-15T06:35:21.373Z,100457.22
2024-04-15T06:38:10.913Z,100464.81
2024-04-15T06:40:59.111Z,100465.84
2024-04-15T06:43:46.929Z,100474.09
2024-04-15T06:46:35.911Z,100473.19
2024-04-15T06:49:23.814Z,100471.47
2024-04-15T06:52:11.572Z,100468.75
2024-04-15T06:54:59.403Z,100475.72
2024-04-15T06:57:47.265Z,100474.63
2024-04-15T07:00:35.138Z,100466.06
2024-04-15T07:03:23.045Z,100474.53
2024-04-15T07:06:10.994Z,100479.31
2024-04-15T07:08:58.813Z,100475.63
2024-04-15T07:11:47.893Z,100465.06
2024-04-15T07:14:35.699Z,100462.47
2024-04-15T07:17:23.410Z,100469.50
2024-04-15T07:20:11.375Z,100466.28
2024-04-15T07:22:59.985Z,100457.81
2024-04-15T07:25:47.737Z,100456.59
2024-04-15T07:28:35.544Z,100465.94
2024-04-15T07:31:23.803Z,100474.16
2024-04-15T07:34:11.662Z,100464.59
2024-04-15T07:36:59.554Z,100463.31
2024-04-15T07:39:47.812Z,100469.50
2024-04-15T07:42:42.597Z,100475.88
2024-04-15T07:45:35.274Z,100473.66
2024-04-15T07:48:23.153Z,100477.78
2024-04-15T07:51:11.061Z,100476.13
2024-04-15T07:53:58.958Z,100488.13
2024-04-15T07:56:46.674Z,100483.66
2024-04-15T07:59:34.490Z,100490.28
2024-04-15T08:02:22.479Z,100491.41
2024-04-15T08:05:11.022Z,100492.06
2024-04-15T08:07:58.845Z,100503.81
2024-04-15T08:10:47.148Z,100493.66
2024-04-15T08:13:35.149Z,100493.44
2024-04-15T08:16:23.046Z,100491.41
2024-04-15T08:19:11.130Z,100496.66
2024-04-15T08:21:58.923Z,100492.47
2024-04-15T08:24:50.563Z,100485.69
2024-04-15T08:27:42.210Z,100490.03
2024-04-15T08:30:30.109Z,100487.72
2024-04-15T08:33:18.377Z,100491.06
2024-04-15T08:36:06.531Z,100497.13
2024-04-15T08:38:54.255Z,100487.91
2024-04-15T08:42:06.323Z,100492.19
2024-04-15T08:44:54.732Z,100487.78
2024-04-15T08:47:48.074Z,100494.81
2024-04-15T08:50:35.819Z,100502.16
2024-04-15T08:53:23.869Z,100508.56
2024-04-15T08:56:14.640Z,100501.19
2024-04-15T08:59:04.545Z,100501.69
2024-04-15T09:01:54.492Z,100514.50
2024-04-15T09:04:42.768Z,100514.41
2024-04-15T09:07:30.886Z,100519.19
2024-04-15T09:10:18.765Z,100516.38
2024-04-15T09:13:09.098Z,100515.31
2024-04-15T09:15:57.377Z,100514.78
2024-04-15T09:18:46.385Z,100519.59
2024-04-15T09:21:37.800Z,100520.22
2024-04-15T09:24:26.376Z,100515.88
2024-04-15T09:27:14.192Z,100525.22
2024-04-15T09:30:02.946Z,100519.31
2024-04-15T09:32:52.079Z,100520.03
2024-04-15T09:35:40.495Z,100524.56
2024-04-15T09:38:28.798Z,100526.56
2024-04-15T09:41:17.101Z,100531.56
2024-04-15T09:44:05.105Z,100527.75
2024-04-15T09:46:53.456Z,100537.34
2024-04-15T09:49:41.844Z,100537.56
2024-04-15T09:52:31.675Z,100545.13
2024-04-15T09:55:28.844Z,100546.38
2024-04-15T09:58:19.197Z,100548.84
2024-04-15T10:01:07.378Z,100533.81
2024-04-15T10:03:56.942Z,100545.16
2024-04-15T10:06:48.934Z,100551.91
2024-04-15T10:09:36.931Z,100552.53
2024-04-15T10:12:25.538Z,100553.88
2024-04-15T10:15:13.636Z,100549.00
2024-04-15T10:18:05.538Z,100544.63
2024-04-15T10:20:53.968Z,100556.13
2024-04-15T10:24:45.529Z,100557.13
2024-04-15T10:27:33.363Z,100551.91
2024-04-15T10:30:21.335Z,100561.69
2024-04-15T10:33:10.069Z,100560.28
2024-04-15T10:35:59.100Z,100559.34
2024-04-15T10:38:50.731Z,100558.81
2024-04-15T10:41:40.971Z,100557.66
2024-04-15T10:44:28.888Z,100568.19
2024-04-15T10:47:16.828Z,100565.56
2024-04-15T10:50:05.216Z,100578.81
2024-04-15T10:52:54.439Z,100577.88
2024-04-15T10:55:44.069Z,100581.16
2024-04-15T10:58:31.921Z,100556.66
2024-04-15T11:01:19.827Z,100592.53
2024-04-15T11:04:08.451Z,100586.47
2024-04-15T11:06:58.652Z,100579.94
2024-04-15T11:09:54.016Z,100581.38
2024-04-15T11:12:42.383Z,100581.88
2024-04-15T11:15:31.247Z,100580.91
2024-04-15T11:18:21.557Z,100585.00
2024-04-15T11:21:09.864Z,100585.41
2024-04-15T11:23:58.624Z,100576.28
2024-04-15T11:26:47.337Z,100575.66
2024-04-15T11:29:41.587Z,100568.59
2024-04-15T11:32:35.822Z,100573.00
2024-04-15T11:35:24.051Z,100564.28
2024-04-15T11:38:12.018Z,100562.97
2024-04-15T11:40:59.839Z,100564.66
2024-04-15T11:43:47.659Z,100555.13
2024-04-15T11:46:39.920Z,100554.66
2024-04-15T11:49:28.017Z,100554.00
2024-04-15T11:52:18.707Z,100556.53
2024-04-15T11:55:17.115Z,100546.19
2024-04-15T11:58:04.925Z,100546.28
2024-04-15T12:00:53.530Z,100551.03
2024-04-15T12:03:41.933Z,100553.41
2024-04-15T12:06:30.113Z,100553.03
2024-04-15T12:09:21.408Z,100554.47
2024-04-15T12:12:09.550Z,100552.81
2024-04-15T12:14:57.805Z,100543.94
2024-04-15T12:17:46.964Z,100550.56
2024-04-15T12:20:34.728Z,100546.31
2024-04-15T12:23:22.525Z,100553.66
2024-04-15T12:26:10.476Z,100548.22
2024-04-15T12:28:58.267Z,100550.13
2024-04-15T12:31:47.459Z,100539.66
2024-04-15T12:34:36.700Z,100542.53
2024-04-15T12:37:24.658Z,100533.34
2024-04-15T12:40:12.819Z,100533.69
2024-04-15T12:43:00.689Z,100531.44
2024-04-15T12:45:48.508Z,100539.03
2024-04-15T12:48:36.545Z,100532.00
2024-04-15T12:51:24.557Z,100527.34
2024-04-15T12:54:12.335Z,100522.81
2024-04-15T12:57:00.238Z,100525.19
2024-04-15T12:59:48.147Z,100513.00
2024-04-15T13:02:36.143Z,100526.88
2024-04-15T13:05:24.128Z,100508.84
2024-04-15T13:08:11.961Z,100503.91
2024-04-15T13:11:00.548Z,100497.44
2024-04-15T13:13:49.551Z,100493.13
2024-04-15T13:16:37.328Z,100499.31
2024-04-15T13:19:25.250Z,100503.59
2024-04-15T13:22:13.216Z,100498.03
2024-04-15T13:25:01.070Z,100503.00
2024-04-15T13:27:48.835Z,100505.94
2024-04-15T13:30:36.570Z,100514.19
2024-04-15T13:33:24.791Z,100525.88
2024-04-15T13:36:12.883Z,100520.03
2024-04-15T13:39:00.832Z,100514.25
2024-04-15T13:41:48.723Z,100518.28
2024-04-15T13:44:36.786Z,100526.56
2024-04-15T13:47:24.761Z,100516.53
2024-04-15T13:50:12.581Z,100527.31
2024-04-15T13:53:00.535Z,100521.59
2024-04-15T13:55:48.765Z,100524.56
2024-04-15T13:58:36.636Z,100514.53
2024-04-15T14:01:26.127Z,100522.56
2024-04-15T14:04:15.904Z,100513.22
2024-04-15T14:07:03.942Z,100510.84
2024-04-15T14:09:51.783Z,100516.09
2024-04-15T14:12:40.478Z,100516.53
2024-04-15T14:15:28.711Z,100507.84
2024-04-15T14:18:16.510Z,100512.28
2024-04-15T14:21:05.624Z,100515.44
2024-04-15T14:23:53.536Z,100522.56
2024-04-15T14:26:41.359Z,100516.88
2024-04-15T14:29:29.280Z,100511.44
2024-04-15T14:32:17.040Z,100514.03
2024-04-15T14:35:04.998Z,100513.31
2024-04-15T14:37:53.106Z,100514.00
2024-04-15T14:40:40.879Z,100511.72
2024-04-15T14:43:28.760Z,100508.00
2024-04-15T14:46:17.768Z,100495.44
2024-04-15T14:49:06.681Z,100504.00
2024-04-15T14:51:54.410Z,100494.00
2024-04-15T14:54:43.139Z,100500.59
2024-04-15T14:57:31.065Z,100498.53
2024-04-15T15:00:19.629Z,100499.19
2024-04-15T15:03:07.439Z,100499.72
2024-04-15T15:05:55.367Z,100493.44
2024-04-15T15:08:45.712Z,100504.00
2024-04-15T15:11:33.565Z,100503.16
2024-04-15T15:14:21.420Z,100500.47
2024-04-15T15:17:09.534Z,100499.19
2024-04-15T15:19:59.466Z,100502.59
2024-04-15T15:22:57.530Z,100500.50
2024-04-15T15:25:51.434Z,100497.84
2024-04-15T15:28:41.541Z,100498.72
2024-04-15T15:31:30.309Z,100502.78
2024-04-15T15:34:18.535Z,100506.75
2024-04-15T15:37:10.284Z,100502.28
2024-04-15T15:40:03.219Z,100505.56
2024-04-15T15:42:57.057Z,100506.03
2024-04-15T15:45:46.862Z,100500.41
2024-04-15T15:48:38.946Z,100488.75
2024-04-15T15:51:29.691Z,100490.13
2024-04-15T15:54:30.440Z,100488.41
2024-04-15T15:57:24.709Z,100485.47
2024-04-15T16:00:13.206Z,100481.31
2024-04-15T16:03:04.173Z,100479.75
2024-04-15T16:05:52.744Z,100476.31
2024-04-15T16:08:48.200Z,100477.63
2024-04-15T16:11:46.696Z,100459.50
2024-04-15T16:14:37.518Z,100470.59
2024-04-15T16:17:25.896Z,100460.88
2024-04-15T16:20:31.052Z,100447.13
2024-04-15T16:23:19.009Z,100444.78
2024-04-15T16:26:06.832Z,100441.28
2024-04-15T16:28:54.709Z,100436.81
2024-04-15T16:31:42.437Z,100430.41
2024-04-15T16:34:30.181Z,100410.41
2024-04-15T16:37:18.072Z,100418.75
2024-04-15T16:40:06.223Z,100411.31
2024-04-15T16:42:54.099Z,100406.31
2024-04-15T16:45:42.109Z,100398.16
2024-04-15T16:48:30.049Z,100388.09
2024-04-15T16:51:17.738Z,100377.81
2024-04-15T16:54:05.632Z,100374.09
2024-04-15T16:56:53.897Z,100361.16
2024-04-15T16:59:41.706Z,100370.38
2024-04-15T17:02:29.568Z,100360.34
2024-04-15T17:05:17.513Z,100355.31
2024-04-15T17:08:08.586Z,100354.16
2024-04-15T17:10:56.552Z,100341.34
2024-04-15T17:13:47.136Z,100341.34
2024-04-15T17:16:35.281Z,100335.28
2024-04-15T17:19:23.481Z,100332.66
2024-04-15T17:22:11.524Z,100338.25
2024-04-15T17:25:00.059Z,100335.53
2024-04-15T17:27:47.846Z,100346.59
2024-04-15T17:30:35.677Z,100340.63
2024-04-15T17:33:23.659Z,100343.75
2024-04-15T17:36:11.764Z,100337.50
2024-04-15T17:38:59.941Z,100326.63
2024-04-15T17:41:47.833Z,100321.81
2024-04-15T17:44:35.639Z,100321.16
2024-04-15T17:47:23.553Z,100321.19
2024-04-15T17:50:11.466Z,100323.63
2024-04-15T17:52:59.218Z,100313.47
2024-04-15T17:55:47.492Z,100323.72
2024-04-15T17:58:35.404Z,100321.31
2024-04-15T18:01:25.205Z,100317.78
2024-04-15T18:04:13.311Z,100309.56
2024-04-15T18:07:01.360Z,100325.03
2024-04-15T18:09:49.183Z,100320.31
2024-04-15T18:12:38.072Z,100320.16
2024-04-15T18:15:26.089Z,100309.88
2024-04-15T18:18:16.444Z,100309.13
2024-04-15T18:21:04.366Z,100303.19
2024-04-15T18:23:52.197Z,100300.59
2024-04-15T18:26:40.042Z,100301.66
2024-04-15T18:29:27.778Z,100300.38
2024-04-15T18:32:15.631Z,100299.19
2024-04-15T18:35:03.494Z,100291.03
2024-04-15T18:37:51.340Z,100280.28
2024-04-15T18:40:41.385Z,100277.00
2024-04-15T18:43:29.643Z,100269.72
2024-04-15T18:46:17.602Z,100267.69
2024-04-15T18:49:05.498Z,100251.41
2024-04-15T18:51:53.299Z,100247.81
2024-04-15T18:54:41.421Z,100231.13
2024-04-15T18:57:29.227Z,100232.47
2024-04-15T19:00:17.062Z,100237.44
2024-04-15T19:03:05.149Z,100230.81
2024-04-15T19:05:53.451Z,100223.75
2024-04-15T19:08:41.154Z,100212.84
2024-04-15T19:11:28.990Z,100211.72
2024-04-15T19:14:16.818Z,100214.00
2024-04-15T19:17:05.064Z,100214.91
2024-04-15T19:19:52.911Z,100197.69
2024-04-15T19:22:40.671Z,100209.16
2024-04-15T19:25:30.482Z,100208.41
2024-04-15T19:28:18.649Z,100200.84
2024-04-15T19:31:09.007Z,100199.25
2024-04-15T19:33:58.491Z,100208.75
2024-04-15T19:36:46.355Z,100204.38
2024-04-15T19:39:34.317Z,100198.47
2024-04-15T19:42:22.085Z,100199.31
2024-04-15T19:45:11.667Z,100190.63
2024-04-15T19:48:00.792Z,100194.13
2024-04-15T19:50:48.731Z,100195.06
2024-04-15T19:53:37.778Z,100203.13
2024-04-15T19:56:25.587Z,100190.41
2024-04-15T19:59:13.458Z,100191.34
2024-04-15T20:02:01.202Z,100185.97
2024-04-15T20:04:49.026Z,100174.44
2024-04-15T20:07:37.443Z,100176.47
2024-04-15T20:10:25.345Z,100175.22
2024-04-15T20:13:13.211Z,100175.22
2024-04-15T20:16:01.113Z,100176.63
2024-04-15T20:19:02.431Z,100166.56
2024-04-15T20:21:50.448Z,100152.09
2024-04-15T20:24:38.604Z,100156.28
2024-04-15T20:27:26.511Z,100157.34
2024-04-15T20:30:14.249Z,100157.06
2024-04-15T20:33:02.030Z,100146.97
2024-04-15T20:35:49.902Z,100136.28
2024-04-15T20:38:40.146Z,100137.69
2024-04-15T20:41:28.000Z,100126.66
2024-04-15T20:44:15.715Z,100127.56
2024-04-15T20:47:03.543Z,100132.03
2024-04-15T20:49:51.423Z,100120.63
2024-04-15T20:52:39.278Z,100129.00
2024-04-15T20:55:27.150Z,100121.00
2024-04-15T20:58:15.072Z,100126.66
2024-04-15T21:01:04.801Z,100126.34
2024-04-15T21:03:53.171Z,100118.69
2024-04-15T21:06:41.049Z,100122.72
2024-04-15T21:09:28.876Z,100111.47
2024-04-15T21:12:16.669Z,100102.78
2024-04-15T21:15:04.569Z,100107.72
2024-04-15T21:17:53.006Z,100102.00
2024-04-15T21:20:40.941Z,100105.03
2024-04-15T21:23:28.700Z,100089.06
2024-04-15T21:26:16.601Z,100097.81
2024-04-15T21:29:04.423Z,100094.09
2024-04-15T21:31:52.218Z,100092.28
2024-04-15T21:34:40.081Z,100086.09
2024-04-15T21:37:27.956Z,100085.09
2024-04-15T21:40:15.882Z,100079.66
2024-04-15T21:43:03.963Z,100077.75
2024-04-15T21:45:52.062Z,100058.47
2024-04-15T21:48:40.070Z,100061.38
2024-04-15T21:51:29.367Z,100061.38
2024-04-15T21:54:17.188Z,100072.22
2024-04-15T21:57:05.050Z,100087.09
2024-04-15T21:59:52.842Z,100079.88
2024-04-15T22:02:40.638Z,100074.25
2024-04-15T22:05:28.598Z,100073.03
2024-04-15T22:08:16.586Z,100073.31
2024-04-15T22:11:05.533Z,100062.19
2024-04-15T22:13:53.349Z,100072.53
2024-04-15T22:16:41.179Z,100064.78
2024-04-15T22:19:29.079Z,100081.00
2024-04-15T22:22:17.134Z,100075.66
2024-04-15T22:25:05.363Z,100061.25
2024-04-15T22:27:53.939Z,100054.47
2024-04-15T22:30:41.675Z,100053.31
2024-04-15T22:33:29.668Z,100048.31
2024-04-15T22:36:17.555Z,100036.13
2024-04-15T22:39:05.415Z,100027.69
2024-04-15T22:41:53.300Z,100021.22
2024-04-15T22:44:41.372Z,100010.72
2024-04-15T22:47:29.244Z,100008.72
2024-04-15T22:50:17.252Z,99995.81
2024-04-15T22:53:05.205Z,99994.97
2024-04-15T22:55:56.886Z,99991.25
2024-04-15T22:58:44.709Z,99987.84
2024-04-15T23:01:32.745Z,99983.13
2024-04-15T23:04:20.737Z,99973.47
2024-04-15T23:07:08.694Z,99971.34
2024-04-15T23:09:56.647Z,99971.00
2024-04-15T23:12:44.403Z,99963.00
2024-04-15T23:15:32.170Z,99965.16
2024-04-15T23:18:20.020Z,99964.38
2024-04-15T23:21:07.872Z,99963.69
2024-04-15T23:23:55.823Z,99963.00
2024-04-15T23:26:43.782Z,99950.34
2024-04-15T23:29:31.523Z,99945.16
2024-04-15T23:32:19.332Z,99944.03
2024-04-15T23:35:07.191Z,99936.97
2024-04-15T23:37:55.029Z,99943.34
2024-04-15T23:40:42.888Z,99943.34
2024-04-15T23:43:30.930Z,99942.22
2024-04-15T23:46:37.796Z,99944.22
2024-04-15T23:49:44.433Z,99927.91
2024-04-15T23:52:50.983Z,99927.34
2024-04-15T23:55:57.484Z,99913.34
2024-04-15T23:58:45.433Z,99897.94
